createdAt,value
2023-02-04T00:04:13.234Z,-1.31
2023-02-04T00:09:35.063Z,-1.22
2023-02-04T00:14:56.912Z,-1.22
2023-02-04T00:20:18.951Z,-1.35
2023-02-04T00:25:40.805Z,-1.22
2023-02-04T00:31:02.658Z,-1.22
2023-02-04T00:36:24.548Z,-1.30
2023-02-04T00:41:46.412Z,-1.30
2023-02-04T00:47:08.266Z,-1.31
2023-02-04T00:52:30.117Z,-1.25
2023-02-04T00:57:51.922Z,-1.29
2023-02-04T01:03:13.793Z,-1.36
2023-02-04T01:08:35.640Z,-1.32
2023-02-04T01:13:57.950Z,-1.17
2023-02-04T01:19:19.824Z,-1.25
2023-02-04T01:24:41.743Z,-1.15
2023-02-04T01:30:06.505Z,-1.20
2023-02-04T01:35:28.373Z,-1.20
2023-02-04T01:40:50.381Z,-1.13
2023-02-04T01:46:12.265Z,-1.09
2023-02-04T01:51:34.556Z,-1.01
2023-02-04T01:56:56.618Z,-1.04
2023-02-04T02:02:41.966Z,-1.02
2023-02-04T02:34:51.952Z,-1.10
2023-02-04T02:40:14.762Z,-0.96
2023-02-04T02:45:36.781Z,-1.04
2023-02-04T02:50:58.806Z,-0.97
2023-02-04T02:56:20.864Z,-0.89
2023-02-04T03:01:43.672Z,-0.98
2023-02-04T03:07:06.945Z,-0.96
2023-02-04T03:12:28.921Z,-1.17
2023-02-04T03:17:50.965Z,-1.01
2023-02-04T03:23:13.059Z,-1.03
2023-02-04T03:28:40.593Z,-0.84
2023-02-04T03:34:02.465Z,-1.03
2023-02-04T03:39:24.336Z,-1.04
2023-02-04T03:44:46.232Z,-1.16
2023-02-04T03:50:08.473Z,-1.13
2023-02-04T03:55:30.345Z,-1.17
2023-02-04T04:00:52.227Z,-1.23
2023-02-04T04:06:14.095Z,-1.37
2023-02-04T04:11:36.120Z,-1.39
2023-02-04T04:16:58.001Z,-1.50
2023-02-04T04:22:19.834Z,-1.49
2023-02-04T04:27:41.731Z,-1.66
2023-02-04T04:33:03.767Z,-1.62
2023-02-04T04:38:25.676Z,-1.51
2023-02-04T04:43:47.558Z,-1.53
2023-02-04T04:49:09.492Z,-1.32
2023-02-04T04:54:31.365Z,-1.27
2023-02-04T04:59:53.284Z,-1.22
2023-02-04T05:05:15.593Z,-1.22
2023-02-04T05:10:37.452Z,-1.20
2023-02-04T05:15:59.326Z,-1.02
2023-02-04T05:21:21.252Z,-1.00
2023-02-04T05:26:43.178Z,-1.16
2023-02-04T05:32:05.031Z,-0.98
2023-02-04T05:37:26.951Z,-0.89
2023-02-04T05:42:48.854Z,-0.86
2023-02-04T05:48:10.761Z,-0.98
2023-02-04T05:53:32.632Z,-0.93
2023-02-04T05:58:54.990Z,-0.85
2023-02-04T06:04:17.087Z,-0.89
2023-02-04T06:09:38.960Z,-0.88
2023-02-04T06:15:00.822Z,-1.00
2023-02-04T06:20:22.716Z,-1.04
2023-02-04T06:25:44.568Z,-1.08
2023-02-04T06:31:06.528Z,-1.06
2023-02-04T06:36:28.503Z,-1.09
2023-02-04T06:41:50.327Z,-1.15
2023-02-04T06:47:12.234Z,-1.34
2023-02-04T06:52:34.088Z,-1.28
2023-02-04T06:57:55.932Z,-1.14
2023-02-04T07:03:17.824Z,-0.16
2023-02-04T07:08:39.692Z,0.13
2023-02-04T07:14:01.578Z,1.18
2023-02-04T07:19:23.479Z,1.59
2023-02-04T07:24:45.361Z,3.34
2023-02-04T07:30:07.781Z,3.28
2023-02-04T07:35:29.836Z,2.86
2023-02-04T07:40:51.967Z,3.52
2023-02-04T07:46:14.128Z,4.82
2023-02-04T07:51:36.040Z,9.97
2023-02-04T07:56:58.002Z,12.04
2023-02-04T08:02:19.929Z,12.35
2023-02-04T08:07:41.865Z,11.34
2023-02-04T08:13:03.856Z,12.74
2023-02-04T08:18:25.773Z,13.96
2023-02-04T08:23:47.658Z,11.67
2023-02-04T08:29:10.228Z,11.85
2023-02-04T08:34:32.391Z,11.48
2023-02-04T08:39:54.289Z,13.05
2023-02-04T08:45:16.240Z,12.06
2023-02-04T08:50:39.114Z,11.86
2023-02-04T08:56:01.136Z,12.43
2023-02-04T09:01:23.288Z,7.16
2023-02-04T09:06:46.125Z,8.81
2023-02-04T09:12:08.069Z,9.52
2023-02-04T09:17:29.997Z,10.34
2023-02-04T09:22:51.844Z,11.59
2023-02-04T09:28:15.103Z,12.33
2023-02-04T09:33:37.650Z,13.93
2023-02-04T09:38:59.878Z,13.11
2023-02-04T09:44:26.339Z,13.23
2023-02-04T09:49:48.199Z,11.98
2023-02-04T09:55:16.789Z,11.36
2023-02-04T10:00:38.807Z,10.98
2023-02-04T10:06:00.758Z,10.68
2023-02-04T10:11:26.020Z,10.95
2023-02-04T10:16:54.232Z,5.74
2023-02-04T10:22:21.486Z,6.57
2023-02-04T10:27:58.818Z,5.64
2023-02-04T10:33:24.414Z,3.86
2023-02-04T10:38:59.576Z,2.63
2023-02-04T10:44:30.696Z,1.98
2023-02-04T10:49:58.779Z,1.88
2023-02-04T10:55:23.173Z,0.86
2023-02-04T11:00:45.061Z,0.34
2023-02-04T11:06:21.783Z,0.50
2023-02-04T11:11:48.987Z,0.32
2023-02-04T11:17:20.832Z,0.27
2023-02-04T11:22:45.790Z,0.76
2023-02-04T11:28:25.108Z,1.12
2023-02-04T11:33:47.958Z,0.90
2023-02-04T11:39:17.075Z,0.65
2023-02-04T11:44:38.934Z,0.77
2023-02-04T11:50:04.640Z,0.89
2023-02-04T11:55:26.668Z,1.31
2023-02-04T12:00:50.649Z,1.60
2023-02-04T12:06:25.234Z,1.11
2023-02-04T12:11:55.689Z,0.78
2023-02-04T12:17:19.669Z,0.94
2023-02-04T12:22:41.490Z,0.99
2023-02-04T12:28:03.395Z,0.67
2023-02-04T12:33:25.434Z,0.94
2023-02-04T12:38:47.338Z,0.79
2023-02-04T12:44:09.153Z,0.70
2023-02-04T12:49:30.962Z,1.02
2023-02-04T12:54:53.022Z,0.20
2023-02-04T13:00:16.737Z,0.35
2023-02-04T13:05:38.647Z,0.28
2023-02-04T13:11:00.483Z,0.20
2023-02-04T13:16:22.452Z,0.47
2023-02-04T13:21:44.341Z,0.12
2023-02-04T13:27:06.220Z,-0.10
2023-02-04T13:32:28.133Z,-0.40
2023-02-04T13:37:49.999Z,-0.09
2023-02-04T13:43:11.944Z,-0.13
2023-02-04T13:48:35.213Z,-0.12
2023-02-04T13:53:58.967Z,-0.28
2023-02-04T13:59:21.188Z,0.02
2023-02-04T14:04:43.027Z,-0.34
2023-02-04T14:10:05.368Z,-0.18
2023-02-04T14:15:27.242Z,-0.18
2023-02-04T14:20:49.192Z,-0.25
2023-02-04T14:26:11.014Z,0.12
2023-02-04T14:31:32.862Z,0.03
2023-02-04T14:36:54.695Z,-0.19
2023-02-04T14:42:16.514Z,-0.46
2023-02-04T14:47:39.614Z,-0.42
2023-02-04T14:53:01.486Z,-0.42
2023-02-04T14:58:23.361Z,-0.80
2023-02-04T15:03:45.372Z,-0.77
2023-02-04T15:09:07.399Z,-1.01
2023-02-04T15:14:29.391Z,-1.09
2023-02-04T15:19:51.319Z,-1.18
2023-02-04T15:25:13.553Z,-1.44
2023-02-04T15:30:35.915Z,-1.51
2023-02-04T15:35:57.985Z,-1.47
2023-02-04T15:41:19.857Z,-1.45
2023-02-04T15:46:41.696Z,-1.44
2023-02-04T15:52:04.789Z,-1.31
2023-02-04T15:57:28.946Z,-1.29
2023-02-04T16:02:50.939Z,-1.38
2023-02-04T16:08:12.914Z,-1.26
2023-02-04T16:13:35.020Z,-1.31
2023-02-04T16:18:56.904Z,-1.35
2023-02-04T16:24:18.796Z,-1.42
2023-02-04T16:29:40.636Z,-1.48
2023-02-04T16:35:02.984Z,-1.57
2023-02-04T16:40:24.847Z,-1.82
2023-02-04T16:45:46.736Z,-1.85
2023-02-04T16:51:10.225Z,-1.68
2023-02-04T16:56:33.933Z,-1.83
2023-02-04T17:01:56.546Z,-2.01
2023-02-04T17:07:18.419Z,-2.15
2023-02-04T17:12:40.328Z,-2.19
2023-02-04T17:18:02.571Z,-2.35
2023-02-04T17:23:25.129Z,-2.29
2023-02-04T17:28:46.995Z,-2.40
2023-02-04T17:34:09.248Z,-2.54
2023-02-04T17:39:31.523Z,-2.45
2023-02-04T17:44:53.792Z,-2.37
2023-02-04T17:50:15.924Z,-2.28
2023-02-04T17:55:39.628Z,-2.32
2023-02-04T18:01:01.975Z,-2.29
2023-02-04T18:06:27.093Z,-2.26
2023-02-04T18:11:48.988Z,-2.15
2023-02-04T18:17:13.752Z,-2.06
2023-02-04T18:22:35.597Z,-2.07
2023-02-04T18:28:01.992Z,-2.04
2023-02-04T18:33:26.877Z,-2.01
2023-02-04T18:38:50.349Z,-2.23
2023-02-04T18:44:31.861Z,-2.38
2023-02-04T18:49:53.765Z,-2.14
2023-02-04T18:55:24.101Z,-2.08
2023-02-04T19:01:11.808Z,-2.12
2023-02-04T19:06:39.976Z,-1.96
2023-02-04T19:12:16.927Z,-2.10
2023-02-04T19:17:38.879Z,-2.31
2023-02-04T19:23:00.753Z,-2.07
2023-02-04T19:28:27.579Z,-2.18
2023-02-04T19:33:49.769Z,-2.54
2023-02-04T19:39:33.837Z,-2.32
2023-02-04T19:45:02.229Z,-2.16
2023-02-04T19:50:34.029Z,-2.39
2023-02-04T19:55:56.288Z,-2.36
2023-02-04T20:01:19.428Z,-2.47
2023-02-04T20:06:43.703Z,-2.43
2023-02-04T20:12:13.779Z,-2.40
2023-02-04T20:17:40.977Z,-2.44
2023-02-04T20:23:27.265Z,-2.52
2023-02-04T20:28:49.770Z,-2.68
2023-02-04T20:34:19.278Z,-2.63
2023-02-04T20:39:41.285Z,-2.72
2023-02-04T20:45:33.982Z,-2.74
2023-02-04T20:50:57.584Z,-2.80
2023-02-04T20:56:29.777Z,-2.59
2023-02-04T21:01:51.747Z,-2.75
2023-02-04T21:07:17.727Z,-2.86
2023-02-04T21:12:39.904Z,-3.19
2023-02-04T21:18:01.778Z,-3.30
2023-02-04T21:23:23.857Z,-3.34
2023-02-04T21:28:45.748Z,-3.57
2023-02-04T21:34:07.846Z,-3.71
2023-02-04T21:39:29.743Z,-3.76
2023-02-04T21:44:52.010Z,-3.61
2023-02-04T21:50:15.998Z,-3.80
2023-02-04T21:55:38.426Z,-3.84
2023-02-04T22:01:01.337Z,-3.93
2023-02-04T22:06:23.939Z,-3.96
2023-02-04T22:11:46.294Z,-4.07
2023-02-04T22:17:08.344Z,-4.18
2023-02-04T22:22:30.515Z,-4.23
2023-02-04T22:27:52.785Z,-4.28
2023-02-04T22:33:15.084Z,-4.34
2023-02-04T22:38:37.387Z,-4.40
2023-02-04T22:43:59.808Z,-4.47
2023-02-04T22:49:21.940Z,-4.56
2023-02-04T22:54:43.860Z,-4.61
2023-02-04T23:00:08.521Z,-4.65
2023-02-04T23:05:30.845Z,-4.79
2023-02-04T23:10:52.868Z,-4.79
2023-02-04T23:16:14.979Z,-4.76
2023-02-04T23:21:36.906Z,-4.68
2023-02-04T23:26:58.982Z,-4.80
2023-02-04T23:32:20.882Z,-4.77
2023-02-04T23:37:43.192Z,-4.86
2023-02-04T23:43:05.921Z,-4.57
2023-02-04T23:48:27.828Z,-4.42
2023-02-04T23:53:49.760Z,-4.32
2023-02-04T23:59:11.788Z,-4.16
